sensor_id;sensor_type;location;lat;lon;timestamp;P1;durP1;ratioP1;P2;durP2;ratioP2
14611;SDS011;7392;52.078;11.650;2024-03-23T00:53:56;5.43;;;4.03;;
14611;SDS011;7392;52.078;11.650;2024-03-23T00:56:23;4.50;;;3.37;;
14611;SDS011;7392;52.078;11.650;2024-03-23T00:58:49;5.50;;;3.90;;
14611;SDS011;7392;52.078;11.650;2024-03-23T01:01:16;4.83;;;3.93;;
14611;SDS011;7392;52.078;11.650;2024-03-23T01:03:42;4.80;;;3.57;;
14611;SDS011;7392;52.078;11.650;2024-03-23T01:06:09;5.60;;;4.20;;
14611;SDS011;7392;52.078;11.650;2024-03-23T01:08:35;4.67;;;3.93;;
14611;SDS011;7392;52.078;11.650;2024-03-23T01:11:07;5.27;;;3.77;;
14611;SDS011;7392;52.078;11.650;2024-03-23T01:13:33;5.13;;;4.27;;
14611;SDS011;7392;52.078;11.650;2024-03-23T01:16:01;5.90;;;4.23;;
14611;SDS011;7392;52.078;11.650;2024-03-23T01:18:27;7.13;;;4.60;;
14611;SDS011;7392;52.078;11.650;2024-03-23T01:20:54;4.47;;;4.00;;
14611;SDS011;7392;52.078;11.650;2024-03-23T01:23:20;4.40;;;4.00;;
14611;SDS011;7392;52.078;11.650;2024-03-23T01:25:51;4.87;;;3.97;;
14611;SDS011;7392;52.078;11.650;2024-03-23T01:28:19;4.27;;;3.87;;
14611;SDS011;7392;52.078;11.650;2024-03-23T01:30:46;4.40;;;4.00;;
14611;SDS011;7392;52.078;11.650;2024-03-23T01:33:13;5.73;;;3.97;;
14611;SDS011;7392;52.078;11.650;2024-03-23T01:35:40;5.07;;;3.70;;
14611;SDS011;7392;52.078;11.650;2024-03-23T01:38:06;4.90;;;3.70;;
14611;SDS011;7392;52.078;11.650;2024-03-23T01:40:33;3.73;;;3.30;;
14611;SDS011;7392;52.078;11.650;2024-03-23T01:43:03;4.70;;;3.40;;
14611;SDS011;7392;52.078;11.650;2024-03-23T01:45:32;4.80;;;3.70;;
14611;SDS011;7392;52.078;11.650;2024-03-23T01:47:58;5.20;;;3.73;;
14611;SDS011;7392;52.078;11.650;2024-03-23T01:50:26;5.47;;;3.60;;
14611;SDS011;7392;52.078;11.650;2024-03-23T01:52:53;4.37;;;3.60;;
14611;SDS011;7392;52.078;11.650;2024-03-23T01:55:20;3.77;;;3.33;;
14611;SDS011;7392;52.078;11.650;2024-03-23T01:57:46;3.90;;;3.40;;
14611;SDS011;7392;52.078;11.650;2024-03-23T02:00:13;3.50;;;3.03;;
14611;SDS011;7392;52.078;11.650;2024-03-23T02:02:44;3.97;;;3.30;;
14611;SDS011;7392;52.078;11.650;2024-03-23T02:05:12;3.13;;;2.83;;
14611;SDS011;7392;52.078;11.650;2024-03-23T02:07:38;3.37;;;3.07;;
14611;SDS011;7392;52.078;11.650;2024-03-23T02:10:07;3.47;;;2.93;;
14611;SDS011;7392;52.078;11.650;2024-03-23T02:12:33;5.57;;;3.63;;
14611;SDS011;7392;52.078;11.650;2024-03-23T02:15:00;5.07;;;4.10;;
14611;SDS011;7392;52.078;11.650;2024-03-23T02:17:26;4.53;;;4.07;;
14611;SDS011;7392;52.078;11.650;2024-03-23T02:19:54;3.90;;;3.50;;
14611;SDS011;7392;52.078;11.650;2024-03-23T02:22:20;3.60;;;3.27;;
14611;SDS011;7392;52.078;11.650;2024-03-23T02:24:49;5.20;;;3.80;;
14611;SDS011;7392;52.078;11.650;2024-03-23T02:27:14;5.10;;;3.60;;
14611;SDS011;7392;52.078;11.650;2024-03-23T02:29:41;3.83;;;2.77;;
14611;SDS011;7392;52.078;11.650;2024-03-23T02:32:07;5.13;;;2.97;;
14611;SDS011;7392;52.078;11.650;2024-03-23T02:34:35;8.10;;;3.47;;
14611;SDS011;7392;52.078;11.650;2024-03-23T02:37:01;6.70;;;3.37;;
14611;SDS011;7392;52.078;11.650;2024-03-23T02:39:28;5.03;;;2.80;;
14611;SDS011;7392;52.078;11.650;2024-03-23T02:41:55;4.67;;;2.40;;
14611;SDS011;7392;52.078;11.650;2024-03-23T02:44:22;5.50;;;3.10;;
14611;SDS011;7392;52.078;11.650;2024-03-23T02:46:48;3.27;;;2.50;;
14611;SDS011;7392;52.078;11.650;2024-03-23T02:49:14;4.43;;;2.60;;
14611;SDS011;7392;52.078;11.650;2024-03-23T02:51:40;3.67;;;2.70;;
14611;SDS011;7392;52.078;11.650;2024-03-23T02:54:10;5.40;;;2.70;;
14611;SDS011;7392;52.078;11.650;2024-03-23T02:56:36;6.43;;;2.77;;
14611;SDS011;7392;52.078;11.650;2024-03-23T02:59:04;6.73;;;2.97;;
14611;SDS011;7392;52.078;11.650;2024-03-23T03:01:30;5.03;;;2.80;;
14611;SDS011;7392;52.078;11.650;2024-03-23T03:03:57;4.50;;;2.73;;
14611;SDS011;7392;52.078;11.650;2024-03-23T03:06:23;5.43;;;2.53;;
14611;SDS011;7392;52.078;11.650;2024-03-23T03:08:50;5.07;;;2.60;;
14611;SDS011;7392;52.078;11.650;2024-03-23T03:11:16;3.43;;;2.30;;
14611;SDS011;7392;52.078;11.650;2024-03-23T03:13:43;4.93;;;2.63;;
14611;SDS011;7392;52.078;11.650;2024-03-23T03:16:10;3.87;;;2.30;;
14611;SDS011;7392;52.078;11.650;2024-03-23T03:18:38;3.27;;;1.70;;
14611;SDS011;7392;52.078;11.650;2024-03-23T03:21:05;2.97;;;1.80;;
14611;SDS011;7392;52.078;11.650;2024-03-23T03:23:36;3.17;;;1.77;;
14611;SDS011;7392;52.078;11.650;2024-03-23T03:26:03;2.37;;;1.93;;
14611;SDS011;7392;52.078;11.650;2024-03-23T03:28:30;2.00;;;1.50;;
14611;SDS011;7392;52.078;11.650;2024-03-23T03:30:57;2.53;;;1.70;;
14611;SDS011;7392;52.078;11.650;2024-03-23T03:33:26;3.40;;;1.70;;
14611;SDS011;7392;52.078;11.650;2024-03-23T03:35:52;2.50;;;2.00;;
14611;SDS011;7392;52.078;11.650;2024-03-23T03:38:19;1.70;;;1.60;;
14611;SDS011;7392;52.078;11.650;2024-03-23T03:40:46;2.83;;;1.80;;
14611;SDS011;7392;52.078;11.650;2024-03-23T03:43:13;3.07;;;1.70;;
14611;SDS011;7392;52.078;11.650;2024-03-23T03:45:39;2.27;;;1.47;;
14611;SDS011;7392;52.078;11.650;2024-03-23T03:48:06;1.73;;;1.63;;
14611;SDS011;7392;52.078;11.650;2024-03-23T03:50:34;2.37;;;1.60;;
14611;SDS011;7392;52.078;11.650;2024-03-23T03:53:01;3.73;;;1.73;;
14611;SDS011;7392;52.078;11.650;2024-03-23T03:55:27;1.90;;;1.33;;
14611;SDS011;7392;52.078;11.650;2024-03-23T03:57:54;3.00;;;1.50;;
14611;SDS011;7392;52.078;11.650;2024-03-23T04:00:20;3.03;;;1.53;;
14611;SDS011;7392;52.078;11.650;2024-03-23T04:02:47;2.97;;;1.60;;
14611;SDS011;7392;52.078;11.650;2024-03-23T04:05:13;2.83;;;1.40;;
14611;SDS011;7392;52.078;11.650;2024-03-23T04:07:42;3.20;;;1.60;;
14611;SDS011;7392;52.078;11.650;2024-03-23T04:10:08;3.97;;;1.83;;
14611;SDS011;7392;52.078;11.650;2024-03-23T04:12:35;2.43;;;1.60;;
14611;SDS011;7392;52.078;11.650;2024-03-23T04:15:00;5.07;;;1.90;;
14611;SDS011;7392;52.078;11.650;2024-03-23T04:17:30;2.37;;;1.50;;
14611;SDS011;7392;52.078;11.650;2024-03-23T04:19:57;2.43;;;1.33;;
14611;SDS011;7392;52.078;11.650;2024-03-23T04:22:24;2.07;;;1.70;;
14611;SDS011;7392;52.078;11.650;2024-03-23T04:24:53;2.13;;;1.50;;
14611;SDS011;7392;52.078;11.650;2024-03-23T04:27:20;1.93;;;1.43;;
14611;SDS011;7392;52.078;11.650;2024-03-23T04:29:47;3.20;;;1.63;;
14611;SDS011;7392;52.078;11.650;2024-03-23T04:32:14;3.63;;;1.50;;
14611;SDS011;7392;52.078;11.650;2024-03-23T04:34:41;2.53;;;1.80;;
14611;SDS011;7392;52.078;11.650;2024-03-23T04:37:08;3.90;;;1.67;;
14611;SDS011;7392;52.078;11.650;2024-03-23T04:39:36;3.20;;;1.60;;
14611;SDS011;7392;52.078;11.650;2024-03-23T04:42:04;3.60;;;1.53;;
14611;SDS011;7392;52.078;11.650;2024-03-23T04:44:32;2.93;;;1.43;;
14611;SDS011;7392;52.078;11.650;2024-03-23T04:47:00;2.20;;;1.50;;
14611;SDS011;7392;52.078;11.650;2024-03-23T04:49:27;2.73;;;1.50;;
14611;SDS011;7392;52.078;11.650;2024-03-23T04:51:53;4.20;;;1.53;;
14611;SDS011;7392;52.078;11.650;2024-03-23T04:54:20;3.40;;;1.77;;
14611;SDS011;7392;52.078;11.650;2024-03-23T04:56:48;2.87;;;1.80;;
14611;SDS011;7392;52.078;11.650;2024-03-23T04:59:16;2.87;;;1.40;;
14611;SDS011;7392;52.078;11.650;2024-03-23T05:01:42;3.07;;;1.40;;
14611;SDS011;7392;52.078;11.650;2024-03-23T05:04:09;1.87;;;1.40;;
14611;SDS011;7392;52.078;11.650;2024-03-23T05:06:35;2.23;;;1.40;;
14611;SDS011;7392;52.078;11.650;2024-03-23T05:09:02;2.40;;;1.30;;
14611;SDS011;7392;52.078;11.650;2024-03-23T05:11:31;3.13;;;1.60;;
14611;SDS011;7392;52.078;11.650;2024-03-23T05:13:58;4.83;;;1.57;;
14611;SDS011;7392;52.078;11.650;2024-03-23T05:16:26;3.77;;;1.50;;
14611;SDS011;7392;52.078;11.650;2024-03-23T05:18:53;2.17;;;1.40;;
14611;SDS011;7392;52.078;11.650;2024-03-23T05:21:19;2.13;;;1.40;;
14611;SDS011;7392;52.078;11.650;2024-03-23T05:23:46;2.83;;;1.50;;
14611;SDS011;7392;52.078;11.650;2024-03-23T05:26:13;3.87;;;1.60;;
14611;SDS011;7392;52.078;11.650;2024-03-23T05:28:40;3.33;;;1.40;;
14611;SDS011;7392;52.078;11.650;2024-03-23T05:31:06;4.50;;;1.73;;
14611;SDS011;7392;52.078;11.650;2024-03-23T05:33:35;5.47;;;1.70;;
14611;SDS011;7392;52.078;11.650;2024-03-23T05:36:03;1.83;;;1.50;;
14611;SDS011;7392;52.078;11.650;2024-03-23T05:38:31;3.37;;;1.50;;
14611;SDS011;7392;52.078;11.650;2024-03-23T05:40:58;5.27;;;1.83;;
14611;SDS011;7392;52.078;11.650;2024-03-23T05:43:26;5.87;;;1.70;;
14611;SDS011;7392;52.078;11.650;2024-03-23T05:45:54;5.87;;;1.67;;
14611;SDS011;7392;52.078;11.650;2024-03-23T05:48:21;3.87;;;1.70;;
14611;SDS011;7392;52.078;11.650;2024-03-23T05:50:49;4.30;;;1.63;;
14611;SDS011;7392;52.078;11.650;2024-03-23T05:53:16;5.77;;;2.00;;
14611;SDS011;7392;52.078;11.650;2024-03-23T05:55:43;5.30;;;1.57;;
14611;SDS011;7392;52.078;11.650;2024-03-23T05:58:10;5.43;;;1.50;;
14611;SDS011;7392;52.078;11.650;2024-03-23T06:00:36;2.67;;;1.50;;
14611;SDS011;7392;52.078;11.650;2024-03-23T06:03:03;3.43;;;1.37;;
14611;SDS011;7392;52.078;11.650;2024-03-23T06:05:29;5.47;;;1.70;;
14611;SDS011;7392;52.078;11.650;2024-03-23T06:07:58;6.03;;;1.73;;
14611;SDS011;7392;52.078;11.650;2024-03-23T06:10:23;7.13;;;1.70;;
14611;SDS011;7392;52.078;11.650;2024-03-23T06:12:50;5.50;;;1.80;;
14611;SDS011;7392;52.078;11.650;2024-03-23T06:15:17;3.70;;;1.40;;
14611;SDS011;7392;52.078;11.650;2024-03-23T06:17:45;4.53;;;1.80;;
14611;SDS011;7392;52.078;11.650;2024-03-23T06:20:11;4.87;;;1.63;;
14611;SDS011;7392;52.078;11.650;2024-03-23T06:22:39;4.93;;;1.93;;
14611;SDS011;7392;52.078;11.650;2024-03-23T06:25:08;2.90;;;1.40;;
14611;SDS011;7392;52.078;11.650;2024-03-23T06:27:35;2.30;;;1.10;;
14611;SDS011;7392;52.078;11.650;2024-03-23T06:30:01;5.07;;;1.93;;
14611;SDS011;7392;52.078;11.650;2024-03-23T06:32:28;6.73;;;2.33;;
14611;SDS011;7392;52.078;11.650;2024-03-23T06:34:55;6.53;;;1.77;;
14611;SDS011;7392;52.078;11.650;2024-03-23T06:37:22;6.03;;;1.47;;
14611;SDS011;7392;52.078;11.650;2024-03-23T06:39:48;4.13;;;1.90;;
14611;SDS011;7392;52.078;11.650;2024-03-23T06:42:16;6.63;;;2.17;;
14611;SDS011;7392;52.078;11.650;2024-03-23T06:44:43;4.13;;;1.43;;
14611;SDS011;7392;52.078;11.650;2024-03-23T06:47:10;3.67;;;1.60;;
14611;SDS011;7392;52.078;11.650;2024-03-23T06:49:36;3.27;;;1.53;;
14611;SDS011;7392;52.078;11.650;2024-03-23T06:52:03;3.70;;;1.50;;
14611;SDS011;7392;52.078;11.650;2024-03-23T06:54:29;4.73;;;1.80;;
14611;SDS011;7392;52.078;11.650;2024-03-23T06:56:56;5.90;;;1.97;;
14611;SDS011;7392;52.078;11.650;2024-03-23T06:59:23;5.47;;;1.70;;
14611;SDS011;7392;52.078;11.650;2024-03-23T07:01:50;3.53;;;1.50;;
14611;SDS011;7392;52.078;11.650;2024-03-23T07:04:16;5.03;;;1.77;;
14611;SDS011;7392;52.078;11.650;2024-03-23T07:06:44;5.50;;;1.93;;
14611;SDS011;7392;52.078;11.650;2024-03-23T07:09:10;4.87;;;1.77;;
14611;SDS011;7392;52.078;11.650;2024-03-23T07:11:37;5.70;;;2.00;;
14611;SDS011;7392;52.078;11.650;2024-03-23T07:14:03;5.17;;;1.87;;
14611;SDS011;7392;52.078;11.650;2024-03-23T07:16:31;3.70;;;1.40;;
14611;SDS011;7392;52.078;11.650;2024-03-23T07:18:57;4.53;;;1.70;;
14611;SDS011;7392;52.078;11.650;2024-03-23T07:21:25;5.43;;;1.90;;
14611;SDS011;7392;52.078;11.650;2024-03-23T07:23:50;2.63;;;1.50;;
14611;SDS011;7392;52.078;11.650;2024-03-23T07:26:17;3.03;;;1.57;;
14611;SDS011;7392;52.078;11.650;2024-03-23T07:28:44;6.03;;;1.90;;
14611;SDS011;7392;52.078;11.650;2024-03-23T07:31:11;5.90;;;1.60;;
14611;SDS011;7392;52.078;11.650;2024-03-23T07:33:42;4.13;;;1.63;;
14611;SDS011;7392;52.078;11.650;2024-03-23T07:36:10;4.50;;;1.77;;
14611;SDS011;7392;52.078;11.650;2024-03-23T07:38:37;3.70;;;1.70;;
14611;SDS011;7392;52.078;11.650;2024-03-23T07:41:07;2.80;;;1.30;;
14611;SDS011;7392;52.078;11.650;2024-03-23T07:43:35;5.50;;;2.00;;
14611;SDS011;7392;52.078;11.650;2024-03-23T07:46:02;5.07;;;1.80;;
14611;SDS011;7392;52.078;11.650;2024-03-23T07:48:29;3.93;;;1.60;;
14611;SDS011;7392;52.078;11.650;2024-03-23T07:51:01;5.97;;;2.00;;
14611;SDS011;7392;52.078;11.650;2024-03-23T07:53:28;5.10;;;1.90;;
14611;SDS011;7392;52.078;11.650;2024-03-23T07:55:56;6.47;;;2.07;;
14611;SDS011;7392;52.078;11.650;2024-03-23T07:58:23;4.30;;;1.53;;
14611;SDS011;7392;52.078;11.650;2024-03-23T08:00:50;4.20;;;1.77;;
14611;SDS011;7392;52.078;11.650;2024-03-23T08:03:16;4.73;;;1.57;;
14611;SDS011;7392;52.078;11.650;2024-03-23T08:05:43;6.73;;;1.83;;
14611;SDS011;7392;52.078;11.650;2024-03-23T08:08:11;6.63;;;2.13;;
14611;SDS011;7392;52.078;11.650;2024-03-23T08:10:46;5.93;;;2.53;;
14611;SDS011;7392;52.078;11.650;2024-03-23T08:13:13;7.57;;;2.07;;
14611;SDS011;7392;52.078;11.650;2024-03-23T08:15:40;4.63;;;1.93;;
14611;SDS011;7392;52.078;11.650;2024-03-23T08:18:08;4.23;;;1.70;;
14611;SDS011;7392;52.078;11.650;2024-03-23T08:20:36;4.80;;;1.57;;
14611;SDS011;7392;52.078;11.650;2024-03-23T08:23:02;5.03;;;1.77;;
14611;SDS011;7392;52.078;11.650;2024-03-23T08:25:31;3.20;;;1.40;;
14611;SDS011;7392;52.078;11.650;2024-03-23T08:27:58;5.07;;;2.23;;
14611;SDS011;7392;52.078;11.650;2024-03-23T08:30:27;5.47;;;2.00;;
14611;SDS011;7392;52.078;11.650;2024-03-23T08:32:53;4.73;;;1.67;;
14611;SDS011;7392;52.078;11.650;2024-03-23T08:35:22;4.97;;;2.10;;
14611;SDS011;7392;52.078;11.650;2024-03-23T08:37:50;6.67;;;1.83;;
14611;SDS011;7392;52.078;11.650;2024-03-23T08:40:18;7.33;;;2.70;;
14611;SDS011;7392;52.078;11.650;2024-03-23T08:42:47;5.47;;;2.10;;
14611;SDS011;7392;52.078;11.650;2024-03-23T08:45:15;6.87;;;2.30;;
14611;SDS011;7392;52.078;11.650;2024-03-23T08:47:42;6.10;;;2.30;;
14611;SDS011;7392;52.078;11.650;2024-03-23T08:50:10;4.90;;;2.33;;
14611;SDS011;7392;52.078;11.650;2024-03-23T08:52:37;6.13;;;2.23;;
14611;SDS011;7392;52.078;11.650;2024-03-23T08:55:07;5.93;;;2.47;;
14611;SDS011;7392;52.078;11.650;2024-03-23T08:57:36;4.33;;;2.00;;
14611;SDS011;7392;52.078;11.650;2024-03-23T09:00:08;4.93;;;2.00;;
14611;SDS011;7392;52.078;11.650;2024-03-23T09:02:36;6.03;;;2.00;;
14611;SDS011;7392;52.078;11.650;2024-03-23T09:05:04;5.23;;;2.00;;
14611;SDS011;7392;52.078;11.650;2024-03-23T09:07:33;6.33;;;2.40;;
14611;SDS011;7392;52.078;11.650;2024-03-23T09:10:02;3.70;;;1.80;;
14611;SDS011;7392;52.078;11.650;2024-03-23T09:12:30;5.40;;;2.00;;
14611;SDS011;7392;52.078;11.650;2024-03-23T09:14:59;5.30;;;1.93;;
14611;SDS011;7392;52.078;11.650;2024-03-23T09:17:27;5.67;;;2.00;;
14611;SDS011;7392;52.078;11.650;2024-03-23T09:19:55;5.70;;;2.17;;
14611;SDS011;7392;52.078;11.650;2024-03-23T09:22:23;4.47;;;1.87;;
14611;SDS011;7392;52.078;11.650;2024-03-23T09:24:59;2.90;;;1.57;;
14611;SDS011;7392;52.078;11.650;2024-03-23T09:27:47;4.83;;;1.90;;
14611;SDS011;7392;52.078;11.650;2024-03-23T09:30:15;3.37;;;1.57;;
14611;SDS011;7392;52.078;11.650;2024-03-23T09:32:46;3.70;;;1.77;;
14611;SDS011;7392;52.078;11.650;2024-03-23T09:35:15;5.57;;;1.90;;
14611;SDS011;7392;52.078;11.650;2024-03-23T09:37:42;5.50;;;2.00;;
14611;SDS011;7392;52.078;11.650;2024-03-23T09:40:11;4.30;;;2.10;;
14611;SDS011;7392;52.078;11.650;2024-03-23T09:42:37;3.90;;;2.30;;
14611;SDS011;7392;52.078;11.650;2024-03-23T09:45:09;6.50;;;2.37;;
14611;SDS011;7392;52.078;11.650;2024-03-23T09:47:43;3.97;;;2.47;;
14611;SDS011;7392;52.078;11.650;2024-03-23T09:50:13;5.73;;;2.20;;
14611;SDS011;7392;52.078;11.650;2024-03-23T09:52:39;7.10;;;2.70;;
14611;SDS011;7392;52.078;11.650;2024-03-23T09:55:07;9.47;;;2.57;;
14611;SDS011;7392;52.078;11.650;2024-03-23T09:57:34;9.77;;;2.80;;
14611;SDS011;7392;52.078;11.650;2024-03-23T10:00:00;6.20;;;2.67;;
14611;SDS011;7392;52.078;11.650;2024-03-23T10:02:27;7.93;;;2.80;;
14611;SDS011;7392;52.078;11.650;2024-03-23T10:04:56;6.27;;;2.27;;
14611;SDS011;7392;52.078;11.650;2024-03-23T10:07:22;9.33;;;2.47;;
14611;SDS011;7392;52.078;11.650;2024-03-23T10:09:49;5.90;;;2.30;;
14611;SDS011;7392;52.078;11.650;2024-03-23T10:12:17;8.17;;;2.60;;
14611;SDS011;7392;52.078;11.650;2024-03-23T10:14:45;4.93;;;2.50;;
14611;SDS011;7392;52.078;11.650;2024-03-23T10:17:12;6.57;;;2.53;;
14611;SDS011;7392;52.078;11.650;2024-03-23T10:19:40;6.57;;;2.30;;
14611;SDS011;7392;52.078;11.650;2024-03-23T10:22:09;6.97;;;2.53;;
14611;SDS011;7392;52.078;11.650;2024-03-23T10:24:36;8.30;;;2.23;;
14611;SDS011;7392;52.078;11.650;2024-03-23T10:27:02;9.67;;;2.53;;
14611;SDS011;7392;52.078;11.650;2024-03-23T10:29:29;8.17;;;2.37;;
14611;SDS011;7392;52.078;11.650;2024-03-23T10:32:07;8.40;;;2.67;;
14611;SDS011;7392;52.078;11.650;2024-03-23T10:34:35;6.43;;;1.87;;
14611;SDS011;7392;52.078;11.650;2024-03-23T10:37:01;6.80;;;2.60;;
14611;SDS011;7392;52.078;11.650;2024-03-23T10:39:31;8.10;;;2.70;;
14611;SDS011;7392;52.078;11.650;2024-03-23T10:41:59;9.70;;;3.00;;
14611;SDS011;7392;52.078;11.650;2024-03-23T10:44:28;9.80;;;4.60;;
14611;SDS011;7392;52.078;11.650;2024-03-23T10:46:57;8.30;;;3.23;;
14611;SDS011;7392;52.078;11.650;2024-03-23T10:49:26;10.13;;;2.97;;
14611;SDS011;7392;52.078;11.650;2024-03-23T10:51:59;8.13;;;3.17;;
14611;SDS011;7392;52.078;11.650;2024-03-23T10:54:28;7.40;;;4.07;;
14611;SDS011;7392;52.078;11.650;2024-03-23T10:57:03;8.33;;;3.70;;
14611;SDS011;7392;52.078;11.650;2024-03-23T10:59:37;7.93;;;2.90;;
14611;SDS011;7392;52.078;11.650;2024-03-23T11:02:04;6.20;;;1.87;;
14611;SDS011;7392;52.078;11.650;2024-03-23T11:04:35;7.37;;;2.20;;
14611;SDS011;7392;52.078;11.650;2024-03-23T11:07:06;5.40;;;2.13;;
14611;SDS011;7392;52.078;11.650;2024-03-23T11:10:00;4.80;;;1.90;;
14611;SDS011;7392;52.078;11.650;2024-03-23T11:12:30;6.37;;;1.93;;
14611;SDS011;7392;52.078;11.650;2024-03-23T11:15:00;5.90;;;2.10;;
14611;SDS011;7392;52.078;11.650;2024-03-23T11:17:30;6.10;;;2.13;;
14611;SDS011;7392;52.078;11.650;2024-03-23T11:20:00;4.20;;;1.70;;
14611;SDS011;7392;52.078;11.650;2024-03-23T11:22:44;3.17;;;1.80;;
14611;SDS011;7392;52.078;11.650;2024-03-23T11:25:18;4.30;;;2.07;;
14611;SDS011;7392;52.078;11.650;2024-03-23T11:27:47;4.73;;;1.90;;
14611;SDS011;7392;52.078;11.650;2024-03-23T11:30:18;3.10;;;1.70;;
14611;SDS011;7392;52.078;11.650;2024-03-23T11:32:46;3.50;;;1.93;;
14611;SDS011;7392;52.078;11.650;2024-03-23T11:35:24;4.70;;;2.07;;
14611;SDS011;7392;52.078;11.650;2024-03-23T11:38:06;5.10;;;2.03;;
14611;SDS011;7392;52.078;11.650;2024-03-23T11:40:36;4.47;;;2.17;;
14611;SDS011;7392;52.078;11.650;2024-03-23T11:43:04;7.87;;;3.07;;
14611;SDS011;7392;52.078;11.650;2024-03-23T11:45:36;6.90;;;2.70;;
14611;SDS011;7392;52.078;11.650;2024-03-23T11:48:08;4.73;;;2.37;;
14611;SDS011;7392;52.078;11.650;2024-03-23T11:50:41;5.50;;;2.57;;
14611;SDS011;7392;52.078;11.650;2024-03-23T11:53:13;7.10;;;2.80;;
14611;SDS011;7392;52.078;11.650;2024-03-23T11:55:44;4.97;;;2.40;;
14611;SDS011;7392;52.078;11.650;2024-03-23T11:58:14;8.90;;;3.13;;
14611;SDS011;7392;52.078;11.650;2024-03-23T12:00:42;8.30;;;3.37;;
14611;SDS011;7392;52.078;11.650;2024-03-23T12:03:15;6.37;;;2.63;;
14611;SDS011;7392;52.078;11.650;2024-03-23T12:05:47;9.27;;;4.40;;
14611;SDS011;7392;52.078;11.650;2024-03-23T12:08:16;9.43;;;4.03;;
14611;SDS011;7392;52.078;11.650;2024-03-23T12:10:46;6.57;;;2.60;;
14611;SDS011;7392;52.078;11.650;2024-03-23T12:13:18;3.93;;;2.33;;
14611;SDS011;7392;52.078;11.650;2024-03-23T12:15:47;8.33;;;3.30;;
14611;SDS011;7392;52.078;11.650;2024-03-23T12:18:15;6.33;;;2.93;;
14611;SDS011;7392;52.078;11.650;2024-03-23T12:20:42;7.83;;;3.17;;
14611;SDS011;7392;52.078;11.650;2024-03-23T12:23:09;5.13;;;2.50;;
14611;SDS011;7392;52.078;11.650;2024-03-23T12:25:40;5.60;;;3.07;;
14611;SDS011;7392;52.078;11.650;2024-03-23T12:28:08;5.07;;;2.83;;
14611;SDS011;7392;52.078;11.650;2024-03-23T12:30:35;7.97;;;3.10;;
14611;SDS011;7392;52.078;11.650;2024-03-23T12:33:05;8.27;;;3.20;;
14611;SDS011;7392;52.078;11.650;2024-03-23T12:35:32;3.83;;;1.50;;
14611;SDS011;7392;52.078;11.650;2024-03-23T12:37:59;3.83;;;2.30;;
14611;SDS011;7392;52.078;11.650;2024-03-23T12:40:32;5.33;;;2.10;;
14611;SDS011;7392;52.078;11.650;2024-03-23T12:43:06;4.53;;;2.07;;
14611;SDS011;7392;52.078;11.650;2024-03-23T12:45:46;5.50;;;2.50;;
14611;SDS011;7392;52.078;11.650;2024-03-23T12:48:18;3.97;;;1.90;;
14611;SDS011;7392;52.078;11.650;2024-03-23T12:50:54;5.53;;;2.43;;
14611;SDS011;7392;52.078;11.650;2024-03-23T12:53:25;3.13;;;1.70;;
14611;SDS011;7392;52.078;11.650;2024-03-23T12:55:52;2.80;;;1.90;;
14611;SDS011;7392;52.078;11.650;2024-03-23T12:58:20;3.03;;;1.80;;
14611;SDS011;7392;52.078;11.650;2024-03-23T13:00:46;3.03;;;1.77;;
14611;SDS011;7392;52.078;11.650;2024-03-23T13:03:13;4.57;;;2.30;;
14611;SDS011;7392;52.078;11.650;2024-03-23T13:05:42;2.97;;;2.03;;
14611;SDS011;7392;52.078;11.650;2024-03-23T13:08:09;4.70;;;2.50;;
14611;SDS011;7392;52.078;11.650;2024-03-23T13:10:36;3.80;;;2.20;;
14611;SDS011;7392;52.078;11.650;2024-03-23T13:13:03;4.57;;;2.50;;
14611;SDS011;7392;52.078;11.650;2024-03-23T13:15:34;4.50;;;2.73;;
14611;SDS011;7392;52.078;11.650;2024-03-23T13:18:00;6.07;;;2.90;;
14611;SDS011;7392;52.078;11.650;2024-03-23T13:20:27;6.27;;;2.20;;
14611;SDS011;7392;52.078;11.650;2024-03-23T13:22:53;4.67;;;2.00;;
14611;SDS011;7392;52.078;11.650;2024-03-23T13:25:20;5.63;;;2.30;;
14611;SDS011;7392;52.078;11.650;2024-03-23T13:27:46;4.30;;;2.00;;
14611;SDS011;7392;52.078;11.650;2024-03-23T13:30:13;5.97;;;1.90;;
14611;SDS011;7392;52.078;11.650;2024-03-23T13:32:41;6.60;;;2.53;;
14611;SDS011;7392;52.078;11.650;2024-03-23T13:35:07;3.33;;;2.20;;
14611;SDS011;7392;52.078;11.650;2024-03-23T13:37:33;3.73;;;1.80;;
14611;SDS011;7392;52.078;11.650;2024-03-23T13:40:00;4.33;;;2.00;;
14611;SDS011;7392;52.078;11.650;2024-03-23T13:42:26;3.93;;;1.60;;
14611;SDS011;7392;52.078;11.650;2024-03-23T13:44:53;4.63;;;1.87;;
14611;SDS011;7392;52.078;11.650;2024-03-23T13:47:19;4.53;;;1.90;;
14611;SDS011;7392;52.078;11.650;2024-03-23T13:49:47;5.10;;;1.73;;
14611;SDS011;7392;52.078;11.650;2024-03-23T13:52:14;3.23;;;1.80;;
14611;SDS011;7392;52.078;11.650;2024-03-23T13:54:41;3.70;;;1.60;;
14611;SDS011;7392;52.078;11.650;2024-03-23T13:57:11;2.77;;;1.37;;
14611;SDS011;7392;52.078;11.650;2024-03-23T13:59:38;2.67;;;1.23;;
14611;SDS011;7392;52.078;11.650;2024-03-23T14:02:04;1.87;;;1.00;;
14611;SDS011;7392;52.078;11.650;2024-03-23T14:04:32;2.87;;;1.30;;
14611;SDS011;7392;52.078;11.650;2024-03-23T14:06:59;2.47;;;1.30;;
14611;SDS011;7392;52.078;11.650;2024-03-23T14:09:27;2.43;;;1.30;;
14611;SDS011;7392;52.078;11.650;2024-03-23T14:11:59;3.37;;;1.80;;
14611;SDS011;7392;52.078;11.650;2024-03-23T14:14:30;4.13;;;1.53;;
14611;SDS011;7392;52.078;11.650;2024-03-23T14:17:00;3.43;;;1.73;;
14611;SDS011;7392;52.078;11.650;2024-03-23T14:19:30;3.13;;;1.40;;
14611;SDS011;7392;52.078;11.650;2024-03-23T14:22:03;3.47;;;1.30;;
14611;SDS011;7392;52.078;11.650;2024-03-23T14:24:35;1.80;;;1.40;;
14611;SDS011;7392;52.078;11.650;2024-03-23T14:27:05;3.17;;;1.40;;
14611;SDS011;7392;52.078;11.650;2024-03-23T14:29:37;2.87;;;1.23;;
14611;SDS011;7392;52.078;11.650;2024-03-23T14:32:07;3.53;;;1.80;;
14611;SDS011;7392;52.078;11.650;2024-03-23T14:39:10;2.80;;;1.60;;
14611;SDS011;7392;52.078;11.650;2024-03-23T14:41:43;5.03;;;1.60;;
14611;SDS011;7392;52.078;11.650;2024-03-23T14:44:13;1.47;;;1.33;;
14611;SDS011;7392;52.078;11.650;2024-03-23T14:46:43;2.70;;;1.63;;
14611;SDS011;7392;52.078;11.650;2024-03-23T14:49:14;3.83;;;2.00;;
14611;SDS011;7392;52.078;11.650;2024-03-23T14:51:54;5.13;;;1.60;;
14611;SDS011;7392;52.078;11.650;2024-03-23T14:54:25;2.73;;;1.53;;
14611;SDS011;7392;52.078;11.650;2024-03-23T14:56:57;3.00;;;1.50;;
14611;SDS011;7392;52.078;11.650;2024-03-23T14:59:28;1.83;;;1.10;;
14611;SDS011;7392;52.078;11.650;2024-03-23T15:02:00;3.97;;;1.53;;
14611;SDS011;7392;52.078;11.650;2024-03-23T15:04:31;3.00;;;1.50;;
14611;SDS011;7392;52.078;11.650;2024-03-23T15:07:05;2.53;;;1.40;;
14611;SDS011;7392;52.078;11.650;2024-03-23T15:09:32;1.67;;;1.23;;
14611;SDS011;7392;52.078;11.650;2024-03-23T15:11:59;1.70;;;1.60;;
14611;SDS011;7392;52.078;11.650;2024-03-23T15:14:25;1.80;;;1.60;;
14611;SDS011;7392;52.078;11.650;2024-03-23T15:16:51;2.40;;;1.67;;
14611;SDS011;7392;52.078;11.650;2024-03-23T15:19:18;2.67;;;1.63;;
14611;SDS011;7392;52.078;11.650;2024-03-23T15:21:45;1.90;;;1.30;;
14611;SDS011;7392;52.078;11.650;2024-03-23T15:24:11;1.80;;;1.60;;
14611;SDS011;7392;52.078;11.650;2024-03-23T15:26:39;1.73;;;1.50;;
14611;SDS011;7392;52.078;11.650;2024-03-23T15:29:06;1.90;;;1.70;;
14611;SDS011;7392;52.078;11.650;2024-03-23T15:31:46;2.00;;;1.70;;
14611;SDS011;7392;52.078;11.650;2024-03-23T15:34:12;2.57;;;2.00;;
14611;SDS011;7392;52.078;11.650;2024-03-23T15:36:39;2.73;;;2.30;;
14611;SDS011;7392;52.078;11.650;2024-03-23T15:39:04;3.10;;;2.00;;
14611;SDS011;7392;52.078;11.650;2024-03-23T15:41:32;2.50;;;2.00;;
14611;SDS011;7392;52.078;11.650;2024-03-23T15:44:01;2.67;;;2.40;;
14611;SDS011;7392;52.078;11.650;2024-03-23T15:46:28;3.13;;;2.00;;
14611;SDS011;7392;52.078;11.650;2024-03-23T15:48:54;2.63;;;1.70;;
14611;SDS011;7392;52.078;11.650;2024-03-23T15:51:21;2.83;;;2.20;;